Sea Thames — V2BV1 — position and weather

sailwx.info

Track history (hours):
 
Tides and Currents Weather Stations Pressure Air Temp Water Temp Dewpoint Dewpoint Depression Visibility Wind Speed Wind Dir Waves Ship Positions

Sea Thames

Last reported at 2016-Feb-01 01:29 UTC. Time now 2016-Feb-13 12:59 UTC.
Position N 50°32' W 000°04'.
Warning: this ship's position is 12 days out of date.

Length 87 m; draft 3.3 m.

Type: Cargo ship. MMSI: 304933000.

Date/timePositionNaut miles runAvg speedWind from/ knotsBaromVisibWave heightAir tempDewpointWater temp
2016-Feb-01 01:29N 50°32' W 000°04'14 3.4
2016-Jan-31 21:28N 50°36' E 000°17'5 5.0
2016-Jan-31 20:31N 50°37' E 000°24'5 5.4
2016-Jan-31 19:33N 50°38' E 000°32'5 4.8
2016-Jan-31 18:34N 50°41' E 000°38'5 4.9
2016-Jan-31 17:34N 50°44' E 000°45'5 4.9
2016-Jan-31 16:34N 50°46' E 000°51'16 5.0
2016-Jan-31 13:26N 50°56' E 001°11'5 6.2
2016-Jan-31 12:34N 50°59' E 001°17'9 8.6
2016-Jan-31 11:34N 51°05' E 001°28'1010.3
2016-Jan-31 10:34N 51°11' E 001°40'9 9.0
2016-Jan-31 09:34N 51°19' E 001°48'8 7.9
2016-Jan-31 08:34N 51°26' E 001°55'7 7.2
2016-Jan-31 07:33N 51°31' E 002°02'8 6.6
2016-Jan-31 06:19N 51°37' E 002°11'5 6.1
2016-Jan-31 05:31N 51°41' E 002°16'58 4.7
2016-Jan-30 17:15N 52°04' E 003°43'3 4.5
2016-Jan-30 16:33N 52°04' E 003°48'6 5.7
2016-Jan-30 15:33N 52°02' E 003°57'8 8.3
2016-Jan-30 14:33N 51°58' E 004°08'9 9.4
2016-Jan-30 13:33N 51°54' E 004°22'0 0.2
2016-Jan-30 12:27N 51°54' E 004°23'0 0.0
2016-Jan-30 11:30N 51°54' E 004°23'0 0.0
2016-Jan-30 10:32N 51°54' E 004°23'0 0.0
2016-Jan-30 09:30N 51°54' E 004°23'0 0.0
2016-Jan-30 08:33N 51°54' E 004°23'0 0.0
2016-Jan-30 07:30N 51°54' E 004°23'0 0.0
2016-Jan-30 06:26N 51°54' E 004°23'0 0.0
2016-Jan-30 05:31N 51°54' E 004°23'0 0.0
2016-Jan-30 04:33N 51°54' E 004°23'0 0.0
2016-Jan-30 03:29N 51°54' E 004°23'0 0.0
2016-Jan-30 02:27N 51°54' E 004°23'0 0.0
2016-Jan-30 01:30N 51°54' E 004°23'0 0.0
2016-Jan-30 00:33N 51°54' E 004°23'0 0.0
2016-Jan-29 23:31N 51°54' E 004°23'0 0.0
2016-Jan-29 22:32N 51°54' E 004°23'0 0.0
2016-Jan-29 21:28N 51°54' E 004°23'0 0.0
2016-Jan-29 20:26N 51°54' E 004°23'0 0.0
2016-Jan-29 19:30N 51°54' E 004°23'0 0.0
2016-Jan-29 18:32N 51°54' E 004°23'0 0.0
2016-Jan-29 17:28N 51°54' E 004°23'3 3.4
2016-Jan-29 16:33N 51°54' E 004°28'0 0.5
2016-Jan-29 15:31N 51°54' E 004°28'0 0.0
2016-Jan-29 14:30N 51°54' E 004°28'0 0.0
2016-Jan-29 13:32N 51°54' E 004°28'0 0.0
2016-Jan-29 12:33N 51°54' E 004°28'0 0.0
2016-Jan-29 11:32N 51°54' E 004°28'0 0.0
2016-Jan-29 10:33N 51°54' E 004°28'0 0.0
2016-Jan-29 09:26N 51°54' E 004°28'0 0.0
2016-Jan-29 08:32N 51°54' E 004°28'0 0.0
2016-Jan-29 07:26N 51°54' E 004°28'0 0.0
2016-Jan-29 06:31N 51°54' E 004°28'0 0.0
2016-Jan-29 05:32N 51°54' E 004°28'0 0.0
2016-Jan-29 04:31N 51°54' E 004°28'0 0.0
2016-Jan-29 03:26N 51°54' E 004°28'0 0.0
2016-Jan-29 02:28N 51°54' E 004°28'0 0.0
2016-Jan-29 01:31N 51°54' E 004°28'0 0.0
2016-Jan-29 00:28N 51°54' E 004°28'0 0.0
2016-Jan-28 23:32N 51°54' E 004°28'0 0.0
2016-Jan-28 22:30N 51°54' E 004°28'0 0.0
2016-Jan-28 21:32N 51°54' E 004°28'0 0.0
2016-Jan-28 20:28N 51°54' E 004°28'0 0.0
2016-Jan-28 19:33N 51°54' E 004°28'0 0.0
2016-Jan-28 18:29N 51°54' E 004°28'0 0.0
2016-Jan-28 17:33N 51°54' E 004°28'0 0.0
2016-Jan-28 16:26N 51°54' E 004°28'0 0.0
2016-Jan-28 15:32N 51°54' E 004°28'0 0.0
2016-Jan-28 14:26N 51°54' E 004°28'0 0.0
2016-Jan-28 13:33N 51°54' E 004°28'0 0.0
2016-Jan-28 12:29N 51°54' E 004°28'0 0.0
2016-Jan-28 11:32N 51°54' E 004°28'0 0.0
2016-Jan-28 10:28N 51°54' E 004°28'0 0.0
2016-Jan-28 09:32N 51°54' E 004°28'0 0.0
2016-Jan-28 08:33N 51°54' E 004°28'0 0.0
2016-Jan-28 07:32N 51°54' E 004°28'0 0.0
2016-Jan-28 06:29N 51°54' E 004°28'0 0.0
2016-Jan-28 05:31N 51°54' E 004°28'0 0.0
2016-Jan-28 04:32N 51°54' E 004°28'0 0.0
2016-Jan-28 03:31N 51°54' E 004°28'0 0.0
2016-Jan-28 02:30N 51°54' E 004°28'0 0.0
2016-Jan-28 01:31N 51°54' E 004°28'0 0.0
2016-Jan-28 00:28N 51°54' E 004°28'0 0.0
2016-Jan-27 23:33N 51°54' E 004°28'0 0.0
2016-Jan-27 22:29N 51°54' E 004°28'0 0.0
2016-Jan-27 21:31N 51°54' E 004°28'0 0.0
2016-Jan-27 20:31N 51°54' E 004°28'0 0.0
2016-Jan-27 19:29N 51°54' E 004°28'0 0.0
2016-Jan-27 18:33N 51°54' E 004°28'0 0.0
2016-Jan-27 17:28N 51°54' E 004°28'0 0.0
2016-Jan-27 16:31N 51°54' E 004°28'0 0.0
2016-Jan-27 15:26N 51°54' E 004°28'0 0.0
2016-Jan-27 14:30N 51°54' E 004°28'0 0.0
2016-Jan-27 13:29N 51°54' E 004°28'0 0.0
2016-Jan-27 12:30N 51°54' E 004°28'0 0.0
2016-Jan-27 11:26N 51°54' E 004°28'0 0.0
2016-Jan-27 10:31N 51°54' E 004°28'0 0.0
2016-Jan-27 09:27N 51°54' E 004°28'0 0.0
2016-Jan-27 08:29N 51°54' E 004°28'0 0.0
2016-Jan-27 07:30N 51°54' E 004°28'0 0.0
2016-Jan-27 06:31N 51°54' E 004°28'0 0.0
2016-Jan-27 05:27N 51°54' E 004°28'0 0.0
2016-Jan-27 04:29N 51°54' E 004°28'0 0.0
2016-Jan-27 03:30N 51°54' E 004°28'0 0.0
2016-Jan-27 02:30N 51°54' E 004°28'0 0.0
2016-Jan-27 01:28N 51°54' E 004°28'0 0.0
2016-Jan-27 00:30N 51°54' E 004°28'0 0.0
2016-Jan-26 23:27N 51°54' E 004°28'0 0.0
2016-Jan-26 22:31N 51°54' E 004°28'0 0.0
2016-Jan-26 21:33N 51°54' E 004°28'0 0.0
2016-Jan-26 20:31N 51°54' E 004°28'0 0.0
2016-Jan-26 19:33N 51°54' E 004°28'0 0.0
2016-Jan-26 18:31N 51°54' E 004°28'0 0.0
2016-Jan-26 17:33N 51°54' E 004°28'0 0.0
2016-Jan-26 16:29N 51°54' E 004°28'0 0.0
2016-Jan-26 15:26N 51°54' E 004°28'0 0.0
2016-Jan-26 14:32N 51°54' E 004°28'0 0.0
2016-Jan-26 13:31N 51°54' E 004°28'0 0.0
2016-Jan-26 12:29N 51°54' E 004°28'0 0.0
2016-Jan-26 11:33N 51°54' E 004°28'0 0.0
2016-Jan-26 10:30N 51°54' E 004°28'0 0.0
2016-Jan-26 09:26N 51°54' E 004°28'0 0.0
2016-Jan-26 08:28N 51°54' E 004°28'0 0.0
2016-Jan-26 07:28N 51°54' E 004°28'0 0.0
2016-Jan-26 06:32N 51°54' E 004°28'0 0.0
2016-Jan-26 05:31N 51°54' E 004°28'0 0.0
2016-Jan-26 04:29N 51°54' E 004°28'0 0.0
2016-Jan-26 03:32N 51°54' E 004°28'0 0.0
2016-Jan-26 02:28N 51°54' E 004°28'0 0.0
2016-Jan-26 01:32N 51°54' E 004°28'0 0.0
2016-Jan-26 00:26N 51°54' E 004°28'0 0.0
2016-Jan-25 23:31N 51°54' E 004°28'0 0.0
2016-Jan-25 22:33N 51°54' E 004°28'0 0.0
2016-Jan-25 21:29N 51°54' E 004°28'0 0.0
2016-Jan-25 20:27N 51°54' E 004°28'0 0.0
2016-Jan-25 19:33N 51°54' E 004°28'0 0.0
2016-Jan-25 18:28N 51°54' E 004°28'0 0.0
2016-Jan-25 17:31N 51°54' E 004°28'0 0.0
2016-Jan-25 16:31N 51°54' E 004°28'0 0.0
2016-Jan-25 15:32N 51°54' E 004°28'0 0.0
2016-Jan-25 14:33N 51°54' E 004°28'0 0.0
2016-Jan-25 13:29N 51°54' E 004°28'0 0.0
2016-Jan-25 12:28N 51°54' E 004°28'0 0.0
2016-Jan-25 11:29N 51°54' E 004°28'0 0.0
2016-Jan-25 10:31N 51°54' E 004°28'0 0.0
2016-Jan-25 09:31N 51°54' E 004°28'0 0.0
2016-Jan-25 08:26N 51°54' E 004°28'0 0.0
2016-Jan-25 07:32N 51°54' E 004°28'0 0.0
2016-Jan-25 06:33N 51°54' E 004°28'0 0.0
2016-Jan-25 05:31N 51°54' E 004°28'0 0.0
2016-Jan-25 04:27N 51°54' E 004°28'0 0.0
2016-Jan-25 03:32N 51°54' E 004°28'0 0.0
2016-Jan-25 02:33N 51°54' E 004°28'0 0.0
2016-Jan-25 01:31N 51°54' E 004°28'0 0.0
2016-Jan-25 00:28N 51°54' E 004°28'0 0.0
2016-Jan-24 23:32N 51°54' E 004°28'0 0.0
2016-Jan-24 22:33N 51°54' E 004°28'0 0.0
2016-Jan-24 21:31N 51°54' E 004°28'0 0.0
2016-Jan-24 20:27N 51°54' E 004°28'0 0.0
2016-Jan-24 19:30N 51°54' E 004°28'0 0.0
2016-Jan-24 18:33N 51°54' E 004°28'0 0.0
2016-Jan-24 17:30N 51°54' E 004°28'0 0.0
2016-Jan-24 16:33N 51°54' E 004°28'7 6.8
2016-Jan-24 15:33N 51°54' E 004°17'10 9.6
2016-Jan-24 14:33N 51°59' E 004°04'10 9.8
2016-Jan-24 13:32N 51°60' E 003°48'84 6.8
2016-Jan-24 01:10N 52°53' E 002°02'3 4.8
2016-Jan-24 00:33N 52°54' E 001°58'6 5.8
2016-Jan-23 23:33N 52°57' E 001°50'8 7.6
2016-Jan-23 22:33N 53°01' E 001°38'9 8.6
2016-Jan-23 21:33N 53°06' E 001°26'14 9.5
2016-Jan-23 20:05N 53°15' E 001°09'5 9.7
2016-Jan-23 19:33N 53°19' E 001°03'28 9.4
2016-Jan-23 16:33N 53°32' E 000°21'8 8.0
2016-Jan-23 15:33N 53°33' E 000°08'6 6.4
2016-Jan-23 14:33N 53°36' W 000°02'6 6.0
2016-Jan-23 13:33N 53°38' W 000°11'0 0.4
2016-Jan-23 12:33N 53°38' W 000°12'0 0.0
2016-Jan-23 11:31N 53°38' W 000°12'0 0.0
2016-Jan-23 10:31N 53°38' W 000°12'0 0.0
2016-Jan-23 09:29N 53°38' W 000°12'0 0.0
2016-Jan-23 08:33N 53°38' W 000°12'0 0.0
2016-Jan-23 07:25N 53°38' W 000°12'0 0.0
2016-Jan-23 06:31N 53°38' W 000°12'0 0.0
2016-Jan-23 05:31N 53°38' W 000°12'0 0.0
2016-Jan-23 04:31N 53°38' W 000°12'0 0.0
2016-Jan-23 03:32N 53°38' W 000°12'0 0.0
2016-Jan-23 02:33N 53°38' W 000°12'0 0.0
2016-Jan-23 01:29N 53°38' W 000°12'0 0.0
2016-Jan-23 00:31N 53°38' W 000°12'0 0.0
2016-Jan-22 23:30N 53°38' W 000°12'0 0.0
2016-Jan-22 22:32N 53°38' W 000°12'0 0.0
2016-Jan-22 21:32N 53°38' W 000°12'0 0.0
2016-Jan-22 20:31N 53°38' W 000°12'0 0.5
2016-Jan-22 19:33N 53°38' W 000°11'1 1.0
2016-Jan-22 18:33N 53°38' W 000°10'7 6.9
2016-Jan-22 17:33N 53°35' E 000°01'9 8.7
2016-Jan-22 16:33N 53°33' E 000°15'54 7.7
2016-Jan-22 09:33N 53°04' E 001°32'8 8.3
2016-Jan-22 08:34N 53°00' E 001°44'7 7.3
2016-Jan-22 07:33N 52°57' E 001°55'7 6.5
2016-Jan-22 06:30N 52°54' E 002°05'23 7.6
2016-Jan-22 03:30N 52°31' E 002°12'  
Track history (hours):
 
Tides and Currents Weather Stations Pressure Air Temp Water Temp Dewpoint Dewpoint Depression Visibility Wind Speed Wind Dir Waves Ship Positions

Sea Thames

Last reported at 2016-Feb-01 01:29 UTC. Time now 2016-Feb-13 12:59 UTC.
Position N 50°32' W 000°04'.
Warning: this ship's position is 12 days out of date.

Length 87 m; draft 3.3 m.

Type: Cargo ship. MMSI: 304933000.

Date/timePositionNaut miles runAvg speedWind from/ knotsBaromVisibWave heightAir tempDewpointWater temp
2016-Feb-01 01:29N 50°32' W 000°04'14 3.4
2016-Jan-31 21:28N 50°36' E 000°17'5 5.0
2016-Jan-31 20:31N 50°37' E 000°24'5 5.4
2016-Jan-31 19:33N 50°38' E 000°32'5 4.8
2016-Jan-31 18:34N 50°41' E 000°38'5 4.9
2016-Jan-31 17:34N 50°44' E 000°45'5 4.9
2016-Jan-31 16:34N 50°46' E 000°51'16 5.0
2016-Jan-31 13:26N 50°56' E 001°11'5 6.2
2016-Jan-31 12:34N 50°59' E 001°17'9 8.6
2016-Jan-31 11:34N 51°05' E 001°28'1010.3
2016-Jan-31 10:34N 51°11' E 001°40'9 9.0
2016-Jan-31 09:34N 51°19' E 001°48'8 7.9
2016-Jan-31 08:34N 51°26' E 001°55'7 7.2
2016-Jan-31 07:33N 51°31' E 002°02'8 6.6
2016-Jan-31 06:19N 51°37' E 002°11'5 6.1
2016-Jan-31 05:31N 51°41' E 002°16'58 4.7
2016-Jan-30 17:15N 52°04' E 003°43'3 4.5
2016-Jan-30 16:33N 52°04' E 003°48'6 5.7
2016-Jan-30 15:33N 52°02' E 003°57'8 8.3
2016-Jan-30 14:33N 51°58' E 004°08'9 9.4
2016-Jan-30 13:33N 51°54' E 004°22'0 0.2
2016-Jan-30 12:27N 51°54' E 004°23'0 0.0
2016-Jan-30 11:30N 51°54' E 004°23'0 0.0
2016-Jan-30 10:32N 51°54' E 004°23'0 0.0
2016-Jan-30 09:30N 51°54' E 004°23'0 0.0
2016-Jan-30 08:33N 51°54' E 004°23'0 0.0
2016-Jan-30 07:30N 51°54' E 004°23'0 0.0
2016-Jan-30 06:26N 51°54' E 004°23'0 0.0
2016-Jan-30 05:31N 51°54' E 004°23'0 0.0
2016-Jan-30 04:33N 51°54' E 004°23'0 0.0
2016-Jan-30 03:29N 51°54' E 004°23'0 0.0
2016-Jan-30 02:27N 51°54' E 004°23'0 0.0
2016-Jan-30 01:30N 51°54' E 004°23'0 0.0
2016-Jan-30 00:33N 51°54' E 004°23'0 0.0
2016-Jan-29 23:31N 51°54' E 004°23'0 0.0
2016-Jan-29 22:32N 51°54' E 004°23'0 0.0
2016-Jan-29 21:28N 51°54' E 004°23'0 0.0
2016-Jan-29 20:26N 51°54' E 004°23'0 0.0
2016-Jan-29 19:30N 51°54' E 004°23'0 0.0
2016-Jan-29 18:32N 51°54' E 004°23'0 0.0
2016-Jan-29 17:28N 51°54' E 004°23'3 3.4
2016-Jan-29 16:33N 51°54' E 004°28'0 0.5
2016-Jan-29 15:31N 51°54' E 004°28'0 0.0
2016-Jan-29 14:30N 51°54' E 004°28'0 0.0
2016-Jan-29 13:32N 51°54' E 004°28'0 0.0
2016-Jan-29 12:33N 51°54' E 004°28'0 0.0
2016-Jan-29 11:32N 51°54' E 004°28'0 0.0
2016-Jan-29 10:33N 51°54' E 004°28'0 0.0
2016-Jan-29 09:26N 51°54' E 004°28'0 0.0
2016-Jan-29 08:32N 51°54' E 004°28'0 0.0
2016-Jan-29 07:26N 51°54' E 004°28'0 0.0
2016-Jan-29 06:31N 51°54' E 004°28'0 0.0
2016-Jan-29 05:32N 51°54' E 004°28'0 0.0
2016-Jan-29 04:31N 51°54' E 004°28'0 0.0
2016-Jan-29 03:26N 51°54' E 004°28'0 0.0
2016-Jan-29 02:28N 51°54' E 004°28'0 0.0
2016-Jan-29 01:31N 51°54' E 004°28'0 0.0
2016-Jan-29 00:28N 51°54' E 004°28'0 0.0
2016-Jan-28 23:32N 51°54' E 004°28'0 0.0
2016-Jan-28 22:30N 51°54' E 004°28'0 0.0
2016-Jan-28 21:32N 51°54' E 004°28'0 0.0
2016-Jan-28 20:28N 51°54' E 004°28'0 0.0
2016-Jan-28 19:33N 51°54' E 004°28'0 0.0
2016-Jan-28 18:29N 51°54' E 004°28'0 0.0
2016-Jan-28 17:33N 51°54' E 004°28'0 0.0
2016-Jan-28 16:26N 51°54' E 004°28'0 0.0
2016-Jan-28 15:32N 51°54' E 004°28'0 0.0
2016-Jan-28 14:26N 51°54' E 004°28'0 0.0
2016-Jan-28 13:33N 51°54' E 004°28'0 0.0
2016-Jan-28 12:29N 51°54' E 004°28'0 0.0
2016-Jan-28 11:32N 51°54' E 004°28'0 0.0
2016-Jan-28 10:28N 51°54' E 004°28'0 0.0
2016-Jan-28 09:32N 51°54' E 004°28'0 0.0
2016-Jan-28 08:33N 51°54' E 004°28'0 0.0
2016-Jan-28 07:32N 51°54' E 004°28'0 0.0
2016-Jan-28 06:29N 51°54' E 004°28'0 0.0
2016-Jan-28 05:31N 51°54' E 004°28'0 0.0
2016-Jan-28 04:32N 51°54' E 004°28'0 0.0
2016-Jan-28 03:31N 51°54' E 004°28'0 0.0
2016-Jan-28 02:30N 51°54' E 004°28'0 0.0
2016-Jan-28 01:31N 51°54' E 004°28'0 0.0
2016-Jan-28 00:28N 51°54' E 004°28'0 0.0
2016-Jan-27 23:33N 51°54' E 004°28'0 0.0
2016-Jan-27 22:29N 51°54' E 004°28'0 0.0
2016-Jan-27 21:31N 51°54' E 004°28'0 0.0
2016-Jan-27 20:31N 51°54' E 004°28'0 0.0
2016-Jan-27 19:29N 51°54' E 004°28'0 0.0
2016-Jan-27 18:33N 51°54' E 004°28'0 0.0
2016-Jan-27 17:28N 51°54' E 004°28'0 0.0
2016-Jan-27 16:31N 51°54' E 004°28'0 0.0
2016-Jan-27 15:26N 51°54' E 004°28'0 0.0
2016-Jan-27 14:30N 51°54' E 004°28'0 0.0
2016-Jan-27 13:29N 51°54' E 004°28'0 0.0
2016-Jan-27 12:30N 51°54' E 004°28'0 0.0
2016-Jan-27 11:26N 51°54' E 004°28'0 0.0
2016-Jan-27 10:31N 51°54' E 004°28'0 0.0
2016-Jan-27 09:27N 51°54' E 004°28'0 0.0
2016-Jan-27 08:29N 51°54' E 004°28'0 0.0
2016-Jan-27 07:30N 51°54' E 004°28'0 0.0
2016-Jan-27 06:31N 51°54' E 004°28'0 0.0
2016-Jan-27 05:27N 51°54' E 004°28'0 0.0
2016-Jan-27 04:29N 51°54' E 004°28'0 0.0
2016-Jan-27 03:30N 51°54' E 004°28'0 0.0
2016-Jan-27 02:30N 51°54' E 004°28'0 0.0
2016-Jan-27 01:28N 51°54' E 004°28'0 0.0
2016-Jan-27 00:30N 51°54' E 004°28'0 0.0
2016-Jan-26 23:27N 51°54' E 004°28'0 0.0
2016-Jan-26 22:31N 51°54' E 004°28'0 0.0
2016-Jan-26 21:33N 51°54' E 004°28'0 0.0
2016-Jan-26 20:31N 51°54' E 004°28'0 0.0
2016-Jan-26 19:33N 51°54' E 004°28'0 0.0
2016-Jan-26 18:31N 51°54' E 004°28'0 0.0
2016-Jan-26 17:33N 51°54' E 004°28'0 0.0
2016-Jan-26 16:29N 51°54' E 004°28'0 0.0
2016-Jan-26 15:26N 51°54' E 004°28'0 0.0
2016-Jan-26 14:32N 51°54' E 004°28'0 0.0
2016-Jan-26 13:31N 51°54' E 004°28'0 0.0
2016-Jan-26 12:29N 51°54' E 004°28'0 0.0
2016-Jan-26 11:33N 51°54' E 004°28'0 0.0
2016-Jan-26 10:30N 51°54' E 004°28'0 0.0
2016-Jan-26 09:26N 51°54' E 004°28'0 0.0
2016-Jan-26 08:28N 51°54' E 004°28'0 0.0
2016-Jan-26 07:28N 51°54' E 004°28'0 0.0
2016-Jan-26 06:32N 51°54' E 004°28'0 0.0
2016-Jan-26 05:31N 51°54' E 004°28'0 0.0
2016-Jan-26 04:29N 51°54' E 004°28'0 0.0
2016-Jan-26 03:32N 51°54' E 004°28'0 0.0
2016-Jan-26 02:28N 51°54' E 004°28'0 0.0
2016-Jan-26 01:32N 51°54' E 004°28'0 0.0
2016-Jan-26 00:26N 51°54' E 004°28'0 0.0
2016-Jan-25 23:31N 51°54' E 004°28'0 0.0
2016-Jan-25 22:33N 51°54' E 004°28'0 0.0
2016-Jan-25 21:29N 51°54' E 004°28'0 0.0
2016-Jan-25 20:27N 51°54' E 004°28'0 0.0
2016-Jan-25 19:33N 51°54' E 004°28'0 0.0
2016-Jan-25 18:28N 51°54' E 004°28'0 0.0
2016-Jan-25 17:31N 51°54' E 004°28'0 0.0
2016-Jan-25 16:31N 51°54' E 004°28'0 0.0
2016-Jan-25 15:32N 51°54' E 004°28'0 0.0
2016-Jan-25 14:33N 51°54' E 004°28'0 0.0
2016-Jan-25 13:29N 51°54' E 004°28'0 0.0
2016-Jan-25 12:28N 51°54' E 004°28'0 0.0
2016-Jan-25 11:29N 51°54' E 004°28'0 0.0
2016-Jan-25 10:31N 51°54' E 004°28'0 0.0
2016-Jan-25 09:31N 51°54' E 004°28'0 0.0
2016-Jan-25 08:26N 51°54' E 004°28'0 0.0
2016-Jan-25 07:32N 51°54' E 004°28'0 0.0
2016-Jan-25 06:33N 51°54' E 004°28'0 0.0
2016-Jan-25 05:31N 51°54' E 004°28'0 0.0
2016-Jan-25 04:27N 51°54' E 004°28'0 0.0
2016-Jan-25 03:32N 51°54' E 004°28'0 0.0
2016-Jan-25 02:33N 51°54' E 004°28'0 0.0
2016-Jan-25 01:31N 51°54' E 004°28'0 0.0
2016-Jan-25 00:28N 51°54' E 004°28'0 0.0
2016-Jan-24 23:32N 51°54' E 004°28'0 0.0
2016-Jan-24 22:33N 51°54' E 004°28'0 0.0
2016-Jan-24 21:31N 51°54' E 004°28'0 0.0
2016-Jan-24 20:27N 51°54' E 004°28'0 0.0
2016-Jan-24 19:30N 51°54' E 004°28'0 0.0
2016-Jan-24 18:33N 51°54' E 004°28'0 0.0
2016-Jan-24 17:30N 51°54' E 004°28'0 0.0
2016-Jan-24 16:33N 51°54' E 004°28'7 6.8
2016-Jan-24 15:33N 51°54' E 004°17'10 9.6
2016-Jan-24 14:33N 51°59' E 004°04'10 9.8
2016-Jan-24 13:32N 51°60' E 003°48'84 6.8
2016-Jan-24 01:10N 52°53' E 002°02'3 4.8
2016-Jan-24 00:33N 52°54' E 001°58'6 5.8
2016-Jan-23 23:33N 52°57' E 001°50'8 7.6
2016-Jan-23 22:33N 53°01' E 001°38'9 8.6
2016-Jan-23 21:33N 53°06' E 001°26'14 9.5
2016-Jan-23 20:05N 53°15' E 001°09'5 9.7
2016-Jan-23 19:33N 53°19' E 001°03'28 9.4
2016-Jan-23 16:33N 53°32' E 000°21'8 8.0
2016-Jan-23 15:33N 53°33' E 000°08'6 6.4
2016-Jan-23 14:33N 53°36' W 000°02'6 6.0
2016-Jan-23 13:33N 53°38' W 000°11'0 0.4
2016-Jan-23 12:33N 53°38' W 000°12'0 0.0
2016-Jan-23 11:31N 53°38' W 000°12'0 0.0
2016-Jan-23 10:31N 53°38' W 000°12'0 0.0
2016-Jan-23 09:29N 53°38' W 000°12'0 0.0
2016-Jan-23 08:33N 53°38' W 000°12'0 0.0
2016-Jan-23 07:25N 53°38' W 000°12'0 0.0
2016-Jan-23 06:31N 53°38' W 000°12'0 0.0
2016-Jan-23 05:31N 53°38' W 000°12'0 0.0
2016-Jan-23 04:31N 53°38' W 000°12'0 0.0
2016-Jan-23 03:32N 53°38' W 000°12'0 0.0
2016-Jan-23 02:33N 53°38' W 000°12'0 0.0
2016-Jan-23 01:29N 53°38' W 000°12'0 0.0
2016-Jan-23 00:31N 53°38' W 000°12'0 0.0
2016-Jan-22 23:30N 53°38' W 000°12'0 0.0
2016-Jan-22 22:32N 53°38' W 000°12'0 0.0
2016-Jan-22 21:32N 53°38' W 000°12'0 0.0
2016-Jan-22 20:31N 53°38' W 000°12'0 0.5
2016-Jan-22 19:33N 53°38' W 000°11'1 1.0
2016-Jan-22 18:33N 53°38' W 000°10'7 6.9
2016-Jan-22 17:33N 53°35' E 000°01'9 8.7
2016-Jan-22 16:33N 53°33' E 000°15'54 7.7
2016-Jan-22 09:33N 53°04' E 001°32'8 8.3
2016-Jan-22 08:34N 53°00' E 001°44'7 7.3
2016-Jan-22 07:33N 52°57' E 001°55'7 6.5
2016-Jan-22 06:30N 52°54' E 002°05'23 7.6
2016-Jan-22 03:30N 52°31' E 002°12'  

Dump ship's entire track history